Time;durP1;ratioP1;P1;durP2;ratioP2;P2;SDS_P1;SDS_P2;PMS_P1;PMS_P2;Temp;Humidity;BMP_temperature;BMP_pressure;BME280_temperature;BME280_humidity;BME280_pressure;Samples;Min_cycle;Max_cycle;Signal;HPM_P1;HPM_P2
2023/08/14 00:01:54;;;;;;;13.20;3.50;;;;;;;15.99;96.31;100163.98;109115;1257;58647;-62
2023/08/14 00:04:40;;;;;;;12.30;3.30;;;;;;;15.98;96.41;100163.00;109014;1257;60124;-64
2023/08/14 00:07:26;;;;;;;12.00;3.70;;;;;;;15.99;96.85;100161.10;109055;1257;71456;-64
2023/08/14 00:10:12;;;;;;;9.00;3.30;;;;;;;16.01;96.59;100162.02;109144;1257;68832;-64
2023/08/14 00:12:59;;;;;;;8.40;3.10;;;;;;;16.02;96.75;100162.72;109138;1257;71466;-64
2023/08/14 00:15:45;;;;;;;9.80;3.20;;;;;;;16.01;96.68;100163.50;109065;1257;60536;-64
2023/08/14 00:18:31;;;;;;;10.50;3.50;;;;;;;16.02;96.97;100159.83;109077;1257;60141;-64
2023/08/14 00:21:18;;;;;;;10.50;3.30;;;;;;;16.02;97.18;100160.34;109149;1257;72349;-63
2023/08/14 00:24:04;;;;;;;9.40;2.80;;;;;;;16.04;98.35;100161.27;109147;1257;68862;-61
2023/08/14 00:26:50;;;;;;;9.20;3.40;;;;;;;16.05;98.19;100157.52;109117;1257;71219;-62
2023/08/14 00:29:36;;;;;;;12.70;3.50;;;;;;;16.05;98.15;100159.48;109030;1257;59926;-63
2023/08/14 00:32:23;;;;;;;10.40;3.30;;;;;;;16.05;98.75;100165.23;109084;1259;60324;-62
2023/08/14 00:35:09;;;;;;;12.10;3.30;;;;;;;16.05;98.29;100163.28;109061;1257;71534;-62
2023/08/14 00:37:55;;;;;;;10.60;3.30;;;;;;;16.03;98.54;100167.40;109118;1257;68717;-62
2023/08/14 00:40:42;;;;;;;12.40;3.80;;;;;;;16.02;98.75;100168.59;109030;1257;71270;-62
2023/08/14 00:43:29;;;;;;;11.50;3.20;;;;;;;16.01;98.84;100167.59;109018;1258;59569;-63
2023/08/14 00:46:15;;;;;;;11.20;3.20;;;;;;;16.00;98.86;100173.62;109109;1257;60623;-63
2023/08/14 00:49:02;;;;;;;11.30;3.30;;;;;;;15.98;99.54;100179.64;109120;1257;72816;-63
2023/08/14 00:51:49;;;;;;;13.60;3.60;;;;;;;15.99;99.75;100175.14;109117;1257;67746;-63
2023/08/14 00:54:35;;;;;;;10.70;3.20;;;;;;;15.99;99.20;100175.61;109157;1257;73771;-65
2023/08/14 00:57:21;;;;;;;9.30;3.30;;;;;;;15.94;99.07;100170.60;109041;1257;59690;-62
2023/08/14 01:00:09;;;;;;;10.30;3.40;;;;;;;15.95;99.05;100174.44;109098;1257;61062;-63
2023/08/14 01:02:56;;;;;;;10.10;3.80;;;;;;;15.94;98.99;100175.02;109075;1257;73831;-63
2023/08/14 01:05:42;;;;;;;9.30;3.20;;;;;;;15.94;99.21;100168.29;109125;1257;68679;-63
2023/08/14 01:08:29;;;;;;;8.60;2.90;;;;;;;15.92;98.82;100168.46;109045;1257;71178;-63
2023/08/14 01:11:30;;;;;;;13.70;3.60;;;;;;;15.89;99.08;100167.84;109088;1259;59576;-63
2023/08/14 01:14:31;;;;;;;9.10;3.20;;;;;;;15.88;99.12;100166.92;109049;1260;60235;-64
2023/08/14 01:17:21;;;;;;;13.50;3.50;;;;;;;15.86;99.18;100168.86;109100;1258;73118;-64
2023/08/14 01:20:10;;;;;;;13.20;4.00;;;;;;;15.84;99.36;100167.64;109063;1258;66582;-64
2023/08/14 01:23:17;;;;;;;10.40;3.30;;;;;;;15.83;99.37;100168.80;109064;1258;73042;-63
2023/08/14 01:26:04;;;;;;;10.80;3.50;;;;;;;15.82;99.90;100171.25;108980;1258;60839;-63
2023/08/14 01:28:51;;;;;;;11.20;3.10;;;;;;;15.81;99.90;100170.98;108915;1258;57770;-63
2023/08/14 01:31:37;;;;;;;11.50;3.40;;;;;;;15.79;99.82;100177.39;109033;1258;74353;-64
2023/08/14 01:34:24;;;;;;;10.20;3.70;;;;;;;15.79;100.00;100180.12;109064;1258;67833;-64
2023/08/14 01:37:16;;;;;;;9.50;3.20;;;;;;;15.82;100.00;100181.98;108997;1258;72498;-63
2023/08/14 01:40:17;;;;;;;13.40;3.90;;;;;;;15.82;100.00;100183.36;109052;1257;60627;-63
2023/08/14 01:43:10;;;;;;;9.90;3.40;;;;;;;15.83;99.75;100189.57;109155;1257;60120;-64
2023/08/14 01:45:58;;;;;;;9.10;3.40;;;;;;;15.83;99.66;100187.43;108975;1258;71394;-64
2023/08/14 01:48:47;;;;;;;9.90;4.00;;;;;;;15.82;99.76;100186.59;109077;1258;65465;-62
2023/08/14 01:51:34;;;;;;;7.80;3.10;;;;;;;15.80;99.93;100187.48;109016;1262;72728;-63
2023/08/14 01:54:20;;;;;;;10.40;2.90;;;;;;;15.80;99.69;100187.86;109024;1258;60313;-63
2023/08/14 01:57:07;;;;;;;9.90;3.20;;;;;;;15.77;99.98;100191.71;108971;1258;60211;-65
2023/08/14 01:59:54;;;;;;;9.00;3.40;;;;;;;15.75;100.00;100195.71;108932;1258;71553;-63
2023/08/14 02:02:40;;;;;;;8.80;2.90;;;;;;;15.73;100.00;100191.23;109017;1258;67789;-64
2023/08/14 02:05:26;;;;;;;11.30;3.60;;;;;;;15.72;100.00;100188.48;109017;1258;71010;-63
2023/08/14 02:08:13;;;;;;;11.90;3.20;;;;;;;15.73;99.98;100186.23;108951;1258;59390;-63
2023/08/14 02:11:09;;;;;;;8.80;2.90;;;;;;;15.72;100.00;100188.87;109041;1258;60087;-64
2023/08/14 02:13:56;;;;;;;9.10;3.20;;;;;;;15.70;100.00;100191.88;108920;1258;72860;-64
2023/08/14 02:16:42;;;;;;;8.70;3.10;;;;;;;15.69;100.00;100193.73;109068;1258;68013;-62
2023/08/14 02:19:28;;;;;;;10.60;3.80;;;;;;;15.67;100.00;100191.10;109038;1258;71350;-63
2023/08/14 02:22:15;;;;;;;9.40;2.90;;;;;;;15.65;100.00;100186.21;109062;1258;59258;-64
2023/08/14 02:25:02;;;;;;;9.60;3.40;;;;;;;15.64;100.00;100188.88;109019;1259;61504;-64
2023/08/14 02:27:48;;;;;;;7.80;3.40;;;;;;;15.62;99.94;100191.91;109047;1258;74023;-63
2023/08/14 02:30:37;;;;;;;9.00;3.10;;;;;;;15.58;100.00;100197.50;109117;1259;68644;-63
2023/08/14 02:33:24;;;;;;;10.40;3.70;;;;;;;15.55;100.00;100199.39;109009;1258;73399;-63
2023/08/14 02:36:10;;;;;;;10.60;3.50;;;;;;;15.56;100.00;100199.85;109019;1258;59843;-63
2023/08/14 02:38:56;;;;;;;11.70;3.40;;;;;;;15.55;100.00;100199.17;109018;1258;60058;-64
2023/08/14 02:41:42;;;;;;;11.10;3.90;;;;;;;15.54;100.00;100199.19;108988;1258;73027;-64
2023/08/14 02:44:30;;;;;;;9.40;3.10;;;;;;;15.53;100.00;100196.91;109095;1259;69020;-64
2023/08/14 02:47:17;;;;;;;9.30;2.80;;;;;;;15.56;100.00;100195.75;109064;1258;71492;-64
2023/08/14 02:50:04;;;;;;;10.00;3.20;;;;;;;15.57;100.00;100200.94;109033;1258;58079;-63
2023/08/14 02:52:50;;;;;;;10.90;3.40;;;;;;;15.57;100.00;100199.02;109075;1258;60211;-63
2023/08/14 02:55:36;;;;;;;8.70;3.00;;;;;;;15.58;100.00;100195.91;109005;1258;73786;-63
2023/08/14 02:58:23;;;;;;;8.90;2.80;;;;;;;15.58;100.00;100194.84;109036;1258;66517;-63
2023/08/14 03:01:09;;;;;;;7.90;2.60;;;;;;;15.56;100.00;100195.50;109075;1258;71797;-64
2023/08/14 03:03:56;;;;;;;7.60;2.70;;;;;;;15.55;100.00;100198.46;109024;1258;60766;-64
2023/08/14 03:06:42;;;;;;;9.90;3.10;;;;;;;15.54;100.00;100204.14;109106;1258;60225;-65
2023/08/14 03:09:28;;;;;;;8.90;3.30;;;;;;;15.53;100.00;100205.14;109069;1258;74062;-64
2023/08/14 03:12:15;;;;;;;10.20;3.40;;;;;;;15.52;100.00;100208.45;109045;1258;68052;-64
2023/08/14 03:15:02;;;;;;;9.40;2.70;;;;;;;15.50;100.00;100208.29;109020;1258;73416;-64
2023/08/14 03:17:48;;;;;;;9.30;3.00;;;;;;;15.45;100.00;100211.55;108931;1258;58594;-63
2023/08/14 03:20:34;;;;;;;10.40;3.00;;;;;;;15.49;100.00;100214.84;109097;1258;60257;-63
2023/08/14 03:23:21;;;;;;;9.40;3.20;;;;;;;15.47;100.00;100216.60;109041;1258;74016;-64
2023/08/14 03:26:06;;;;;;;8.00;2.80;;;;;;;15.44;100.00;100212.96;109071;1258;68704;-63
2023/08/14 03:28:53;;;;;;;9.00;2.90;;;;;;;15.43;100.00;100216.44;109024;1258;73590;-63
2023/08/14 03:31:39;;;;;;;9.30;2.70;;;;;;;15.43;100.00;100218.02;108987;1258;60619;-63
2023/08/14 03:34:26;;;;;;;8.10;2.80;;;;;;;15.45;100.00;100219.42;109108;1258;60082;-63
2023/08/14 03:37:13;;;;;;;7.80;2.50;;;;;;;15.47;100.00;100218.18;109045;1258;72974;-64
2023/08/14 03:40:00;;;;;;;9.20;2.80;;;;;;;15.51;99.68;100222.67;109036;1258;68836;-62
2023/08/14 03:42:48;;;;;;;10.80;2.70;;;;;;;15.52;99.52;100222.80;109006;1258;73660;-64
2023/08/14 03:45:34;;;;;;;9.10;2.80;;;;;;;15.53;99.26;100217.50;109000;1258;60496;-63
2023/08/14 03:48:20;;;;;;;9.70;2.80;;;;;;;15.54;99.37;100212.56;109028;1261;60081;-61
2023/08/14 03:51:06;;;;;;;8.00;2.80;;;;;;;15.55;98.94;100209.95;109038;1258;72876;-66
2023/08/14 03:53:52;;;;;;;9.60;2.50;;;;;;;15.56;98.59;100209.50;109041;1258;66503;-63
2023/08/14 03:56:39;;;;;;;9.40;2.70;;;;;;;15.58;98.69;100200.58;109064;1258;70577;-62
2023/08/14 03:59:26;;;;;;;8.10;2.70;;;;;;;15.59;98.52;100200.45;109033;1258;59578;-63
2023/08/14 04:02:13;;;;;;;7.40;2.60;;;;;;;15.59;98.23;100198.11;109082;1258;58999;-63
2023/08/14 04:05:01;;;;;;;8.50;2.30;;;;;;;15.64;98.18;100203.48;109083;1258;72750;-62
2023/08/14 04:07:48;;;;;;;13.10;3.30;;;;;;;15.67;97.94;100194.65;109052;1258;67785;-63
2023/08/14 04:10:36;;;;;;;11.40;2.60;;;;;;;15.72;97.77;100199.77;109043;1258;71496;-63
2023/08/14 04:13:26;;;;;;;9.70;2.60;;;;;;;15.77;97.46;100200.52;109041;1258;59582;-63
2023/08/14 04:16:12;;;;;;;8.00;2.60;;;;;;;15.82;97.31;100200.59;109017;1258;60045;-63
2023/08/14 04:18:59;;;;;;;9.40;2.60;;;;;;;15.88;97.13;100203.00;109009;1258;73068;-64
2023/08/14 04:21:46;;;;;;;9.50;2.60;;;;;;;15.96;96.66;100198.90;109069;1258;66304;-63
2023/08/14 04:24:32;;;;;;;9.00;2.90;;;;;;;16.02;96.25;100200.45;108947;1258;72744;-63
2023/08/14 04:27:19;;;;;;;10.90;2.70;;;;;;;16.07;96.03;100202.77;108978;1258;59475;-64
2023/08/14 04:30:06;;;;;;;7.70;2.70;;;;;;;16.14;95.61;100203.18;109007;1258;60125;-64
2023/08/14 04:32:52;;;;;;;8.00;2.90;;;;;;;16.21;94.99;100200.73;108988;1258;74344;-67
2023/08/14 04:35:40;;;;;;;8.80;2.40;;;;;;;16.28;94.75;100198.16;109005;1258;68888;-62
2023/08/14 04:38:27;;;;;;;7.00;2.40;;;;;;;16.34;94.37;100195.86;109022;1258;73545;-63
2023/08/14 04:41:13;;;;;;;8.00;2.60;;;;;;;16.40;94.16;100201.55;108981;1258;59281;-62
2023/08/14 04:44:00;;;;;;;7.30;2.70;;;;;;;16.46;93.83;100204.70;108968;1258;61201;-62
2023/08/14 04:46:47;;;;;;;7.60;2.80;;;;;;;16.51;93.52;100207.75;108996;1258;71600;-61
2023/08/14 04:49:47;;;;;;;10.80;3.20;;;;;;;16.57;92.90;100208.75;109040;1258;68862;-63
2023/08/14 04:52:33;;;;;;;8.30;3.10;;;;;;;16.63;92.56;100211.52;108985;1258;73565;-62
2023/08/14 04:55:19;;;;;;;8.00;2.90;;;;;;;16.71;92.24;100213.98;108969;1258;58103;-63
2023/08/14 04:58:06;;;;;;;8.10;2.60;;;;;;;16.79;92.03;100215.16;108880;1258;61223;-63
2023/08/14 05:00:53;;;;;;;7.50;2.60;;;;;;;16.86;91.52;100213.91;109048;1258;71451;-64
2023/08/14 05:03:40;;;;;;;7.60;2.90;;;;;;;16.92;90.95;100213.16;108988;1258;66402;-64
2023/08/14 05:06:26;;;;;;;9.60;2.80;;;;;;;17.00;90.47;100216.60;108966;1257;73645;-65
2023/08/14 05:09:13;;;;;;;8.60;2.80;;;;;;;17.08;89.30;100216.49;108890;1257;60707;-65
2023/08/14 05:12:12;;;;;;;9.20;2.70;;;;;;;17.18;88.59;100213.84;109068;1258;60298;-64
2023/08/14 05:14:59;;;;;;;7.70;2.70;;;;;;;17.27;87.95;100216.71;109121;1257;72359;-65
2023/08/14 05:17:46;;;;;;;6.90;2.40;;;;;;;17.38;87.23;100217.92;109071;1258;68920;-63
2023/08/14 05:20:34;;;;;;;8.10;2.20;;;;;;;17.49;86.40;100216.06;109062;1257;73425;-62
2023/08/14 05:23:21;;;;;;;9.40;2.50;;;;;;;17.62;85.71;100213.65;109112;1257;58075;-63
2023/08/14 05:26:07;;;;;;;11.20;2.70;;;;;;;17.77;84.83;100207.94;109082;1257;61913;-64
2023/08/14 05:28:53;;;;;;;7.80;2.80;;;;;;;18.01;84.14;100205.04;109018;1257;71579;-64
2023/08/14 05:31:40;;;;;;;8.00;2.50;;;;;;;18.35;82.30;100207.52;108975;1258;67571;-67
2023/08/14 05:34:26;;;;;;;7.90;2.40;;;;;;;18.86;79.53;100204.84;108971;1258;72534;-64
2023/08/14 05:37:12;;;;;;;8.50;2.30;;;;;;;19.64;76.67;100208.55;108959;1263;57454;-63
2023/08/14 05:39:58;;;;;;;9.40;2.60;;;;;;;20.57;73.26;100204.79;109027;1258;61060;-67
2023/08/14 05:43:13;;;;;;;11.90;2.80;;;;;;;21.36;68.32;100201.56;109058;1259;72869;-63
2023/08/14 05:45:59;;;;;;;8.80;2.40;;;;;;;22.13;64.00;100198.91;108954;1258;66576;-65
2023/08/14 05:48:46;;;;;;;9.90;2.10;;;;;;;22.76;60.93;100199.21;108965;1259;73047;-62
2023/08/14 05:51:32;;;;;;;9.20;2.50;;;;;;;23.13;59.25;100199.63;109012;1259;57332;-62
2023/08/14 05:54:20;;;;;;;7.20;2.20;;;;;;;23.68;57.88;100203.75;108908;1258;60410;-64
2023/08/14 05:57:07;;;;;;;9.10;2.20;;;;;;;24.27;56.08;100201.17;108945;1259;73053;-64
2023/08/14 05:59:56;;;;;;;7.30;2.50;;;;;;;24.90;54.45;100198.36;109013;1258;68574;-63
2023/08/14 06:02:42;;;;;;;9.60;2.10;;;;;;;25.19;52.72;100200.80;109029;1258;73977;-65
2023/08/14 06:05:28;;;;;;;8.10;2.50;;;;;;;25.65;51.87;100194.98;109019;1258;57316;-65
2023/08/14 06:08:15;;;;;;;7.40;2.10;;;;;;;26.03;49.80;100198.73;108956;1258;60410;-65
2023/08/14 06:11:02;;;;;;;7.80;2.10;;;;;;;26.32;48.98;100198.65;109027;1259;72914;-65
2023/08/14 06:13:49;;;;;;;8.20;2.20;;;;;;;26.45;48.26;100197.65;108975;1257;68423;-65
2023/08/14 06:16:35;;;;;;;6.70;1.90;;;;;;;26.65;48.11;100203.38;109122;1258;71787;-63
2023/08/14 06:19:22;;;;;;;7.70;2.10;;;;;;;27.04;47.73;100197.05;109132;1257;58068;-63
2023/08/14 06:22:08;;;;;;;7.20;2.00;;;;;;;27.44;46.75;100195.13;109139;1259;60372;-63
2023/08/14 06:24:55;;;;;;;7.40;2.00;;;;;;;27.93;46.26;100198.00;109098;1257;72684;-64
2023/08/14 06:27:41;;;;;;;6.70;2.20;;;;;;;28.34;44.35;100199.14;109067;1259;67825;-63
2023/08/14 06:30:29;;;;;;;7.10;1.80;;;;;;;28.51;43.01;100199.13;109059;1258;70467;-64
2023/08/14 06:33:16;;;;;;;6.90;2.00;;;;;;;28.79;43.14;100203.51;109000;1257;57392;-63
2023/08/14 06:36:02;;;;;;;8.20;2.20;;;;;;;29.08;42.23;100201.30;109128;1258;60083;-66
2023/08/14 06:38:49;;;;;;;6.90;2.00;;;;;;;29.42;41.54;100203.66;109131;1258;73093;-64
2023/08/14 06:41:36;;;;;;;6.10;1.90;;;;;;;29.76;40.31;100211.95;108962;1260;218382;-64
2023/08/14 06:44:23;;;;;;;7.50;2.10;;;;;;;29.90;39.26;100218.34;109084;1257;73578;-66
2023/08/14 06:47:10;;;;;;;6.70;1.80;;;;;;;29.84;39.16;100212.41;109086;1257;58307;-62
2023/08/14 06:49:56;;;;;;;6.40;1.50;;;;;;;30.12;38.76;100212.67;109114;1257;60090;-65
2023/08/14 06:52:42;;;;;;;7.10;1.80;;;;;;;30.66;36.78;100213.70;109137;1257;73811;-68
2023/08/14 06:55:28;;;;;;;7.70;1.80;;;;;;;30.93;36.30;100214.31;109099;1257;67923;-64
2023/08/14 06:58:14;;;;;;;9.70;2.00;;;;;;;31.56;35.83;100212.64;109107;1257;72419;-65
2023/08/14 07:01:01;;;;;;;8.90;1.90;;;;;;;32.24;34.87;100211.96;109064;1257;57377;-66
2023/08/14 07:03:47;;;;;;;6.80;1.80;;;;;;;32.97;34.03;100217.90;109107;1259;58882;-65
2023/08/14 07:06:34;;;;;;;8.60;1.90;;;;;;;33.84;33.20;100221.59;109106;1257;73068;-63
2023/08/14 07:09:21;;;;;;;8.60;1.60;;;;;;;34.54;31.38;100220.05;109111;1258;69261;-64
2023/08/14 07:12:07;;;;;;;7.40;1.60;;;;;;;34.54;30.63;100224.30;109099;1257;73752;-63
2023/08/14 07:14:53;;;;;;;8.40;1.70;;;;;;;34.74;30.48;100221.43;109012;1258;58219;-66
2023/08/14 07:17:40;;;;;;;5.90;1.50;;;;;;;34.96;30.31;100225.70;109106;1257;61155;-64
2023/08/14 07:20:26;;;;;;;6.70;1.60;;;;;;;35.03;29.92;100219.72;109105;1258;71650;-65
2023/08/14 07:23:16;;;;;;;6.80;1.60;;;;;;;35.45;29.63;100217.59;109098;1258;67127;-64
2023/08/14 07:26:11;;;;;;;8.30;1.60;;;;;;;35.83;28.89;100211.40;109053;1258;72602;-64
2023/08/14 07:28:57;;;;;;;6.90;1.50;;;;;;;36.04;28.55;100211.02;109109;1257;58820;-63
2023/08/14 07:31:43;;;;;;;8.10;1.30;;;;;;;36.38;28.03;100214.30;109056;1258;59078;-64
2023/08/14 07:34:30;;;;;;;7.40;1.50;;;;;;;36.79;27.31;100214.55;109084;1257;72605;-66
2023/08/14 07:37:16;;;;;;;8.60;1.80;;;;;;;36.92;26.78;100215.14;109050;1260;68055;-64
2023/08/14 07:40:06;;;;;;;7.30;1.60;;;;;;;37.05;26.35;100218.35;108892;1260;71579;-62
2023/08/14 07:42:52;;;;;;;8.10;1.60;;;;;;;37.08;26.45;100219.27;109029;1260;59022;-64
2023/08/14 07:45:38;;;;;;;7.10;1.50;;;;;;;36.97;26.62;100219.30;109020;1257;61544;-64
2023/08/14 07:48:25;;;;;;;7.00;1.60;;;;;;;37.15;26.29;100219.91;109017;1257;74360;-65
2023/08/14 07:51:11;;;;;;;6.60;1.50;;;;;;;37.64;25.75;100218.48;109039;1257;67790;-63
2023/08/14 07:53:57;;;;;;;6.50;1.40;;;;;;;37.71;24.90;100221.16;109058;1257;73801;-64
2023/08/14 07:56:43;;;;;;;7.10;1.40;;;;;;;37.76;25.12;100218.71;109063;1258;57843;-66
2023/08/14 07:59:33;;;;;;;6.40;1.60;;;;;;;38.02;24.42;100217.27;109113;1258;61204;-65
2023/08/14 08:02:19;;;;;;;7.70;1.60;;;;;;;37.96;24.60;100212.23;109027;1258;73590;-64
2023/08/14 08:05:07;;;;;;;6.30;1.40;;;;;;;37.99;24.47;100209.80;109024;1258;66738;-65
2023/08/14 08:07:53;;;;;;;6.80;1.50;;;;;;;38.14;24.49;100208.09;108980;1259;73723;-64
2023/08/14 08:10:40;;;;;;;7.40;1.60;;;;;;;38.23;23.93;100208.41;108925;1259;58782;-63
2023/08/14 08:13:27;;;;;;;6.70;1.50;;;;;;;37.98;23.53;100201.55;108999;1258;61036;-64
2023/08/14 08:16:13;;;;;;;6.50;1.50;;;;;;;38.03;23.98;100202.92;109013;1258;74372;-65
2023/08/14 08:18:59;;;;;;;10.30;2.00;;;;;;;38.16;24.12;100209.50;109069;1262;68883;-62
2023/08/14 08:21:46;;;;;;;7.30;1.60;;;;;;;38.31;23.68;100209.85;108954;1258;72426;-65
2023/08/14 08:24:33;;;;;;;8.60;1.50;;;;;;;38.37;23.46;100211.48;109010;1258;57369;-64
2023/08/14 08:27:19;;;;;;;7.60;1.60;;;;;;;38.21;24.17;100204.17;109039;1258;58824;-65
2023/08/14 08:30:06;;;;;;;8.00;1.70;;;;;;;38.58;24.36;100201.75;109034;1259;72580;-65
2023/08/14 08:32:52;;;;;;;6.70;1.70;;;;;;;38.61;23.63;100197.13;109037;1258;67964;-65
2023/08/14 08:35:39;;;;;;;7.70;1.80;;;;;;;38.71;23.57;100199.87;108979;1258;72959;-65
2023/08/14 08:38:25;;;;;;;6.90;1.70;;;;;;;38.98;23.32;100196.16;108997;1259;57726;-64
2023/08/14 08:41:31;;;;;;;6.50;1.50;;;;;;;38.89;23.32;100201.66;108977;1258;59930;-64
2023/08/14 08:44:26;;;;;;;6.90;1.60;;;;;;;38.89;22.78;100210.79;109000;1258;72802;-63
2023/08/14 08:47:15;;;;;;;6.90;1.50;;;;;;;38.61;22.54;100212.83;108694;1262;68833;-65
2023/08/14 08:50:02;;;;;;;6.20;1.50;;;;;;;38.32;22.40;100207.67;108770;1262;72760;-62
2023/08/14 08:52:51;;;;;;;7.10;1.70;;;;;;;38.23;22.57;100202.52;108600;1262;58847;-61
2023/08/14 08:55:37;;;;;;;8.40;1.80;;;;;;;37.92;23.36;100204.57;108747;1262;61210;-64
2023/08/14 08:58:25;;;;;;;8.00;1.90;;;;;;;37.69;23.00;100201.70;108726;1263;73436;-66
2023/08/14 09:01:12;;;;;;;6.40;1.60;;;;;;;37.92;23.12;100202.02;108761;1263;68282;-63
2023/08/14 09:04:03;;;;;;;6.60;1.70;;;;;;;37.81;23.29;100201.67;108722;1263;72708;-62
2023/08/14 09:06:50;;;;;;;6.90;1.90;;;;;;;37.99;23.65;100201.98;108677;1264;58002;-65
2023/08/14 09:09:36;;;;;;;7.20;1.70;;;;;;;38.08;23.66;100199.30;108708;1264;61299;-63
2023/08/14 09:12:22;;;;;;;6.80;1.60;;;;;;;38.33;24.09;100198.10;108668;1263;73918;-66
2023/08/14 09:15:09;;;;;;;7.10;1.60;;;;;;;38.67;23.49;100199.55;108784;1263;68988;-63
2023/08/14 09:17:55;;;;;;;6.40;1.60;;;;;;;38.65;22.80;100194.90;108823;1264;72758;-63
2023/08/14 09:20:42;;;;;;;7.10;1.50;;;;;;;38.84;22.99;100191.41;109023;1258;57744;-64
2023/08/14 09:23:32;;;;;;;7.00;1.60;;;;;;;39.13;22.73;100191.44;109002;1259;60272;-64
2023/08/14 09:26:19;;;;;;;7.90;1.60;;;;;;;39.11;22.00;100189.59;109022;1262;73085;-61
2023/08/14 09:29:06;;;;;;;5.80;1.50;;;;;;;39.12;21.91;100192.45;108991;1259;67807;-63
2023/08/14 09:31:52;;;;;;;6.80;1.50;;;;;;;38.96;22.08;100189.91;109034;1258;72387;-64
2023/08/14 09:34:38;;;;;;;5.50;1.40;;;;;;;39.14;22.35;100188.65;108867;1260;57401;-63
2023/08/14 09:37:25;;;;;;;6.60;1.70;;;;;;;39.31;22.15;100187.20;108981;1261;61697;-66
2023/08/14 09:40:15;;;;;;;8.20;1.90;;;;;;;39.16;22.18;100189.55;108914;1259;73005;-62
2023/08/14 09:43:02;;;;;;;6.30;1.70;;;;;;;39.09;22.17;100187.23;109070;1260;68309;-61
2023/08/14 09:45:48;;;;;;;8.00;1.60;;;;;;;38.70;22.28;100193.39;108998;1259;73549;-64
2023/08/14 09:48:47;;;;;;;7.40;1.60;;;;;;;38.38;22.44;100201.29;108920;1259;59269;-63
2023/08/14 09:51:34;;;;;;;6.20;1.70;;;;;;;37.87;22.54;100190.15;108993;1260;60351;-63
2023/08/14 09:54:30;;;;;;;6.50;1.50;;;;;;;37.97;23.00;100184.23;108859;1260;72779;-63
2023/08/14 09:57:21;;;;;;;8.60;1.60;;;;;;;38.44;22.88;100188.96;108890;1259;69253;-63
2023/08/14 10:00:12;;;;;;;8.20;1.80;;;;;;;38.41;22.91;100191.75;108971;1259;72605;-64
2023/08/14 10:03:00;;;;;;;9.50;1.80;;;;;;;38.30;23.22;100183.25;108966;1260;58797;-64
2023/08/14 10:05:50;;;;;;;8.20;1.80;;;;;;;38.33;23.15;100190.27;108893;1264;58765;-63
2023/08/14 10:08:38;;;;;;;8.50;1.60;;;;;;;38.65;22.57;100188.41;108947;1260;72130;-65
2023/08/14 10:11:27;;;;;;;6.60;1.70;;;;;;;38.98;22.38;100180.25;108961;1260;67849;-65
2023/08/14 10:14:17;;;;;;;7.00;1.60;;;;;;;39.11;21.94;100183.47;108957;1260;72696;-63
2023/08/14 10:17:09;;;;;;;7.30;1.60;;;;;;;39.35;22.17;100183.21;108980;1260;57798;-62
2023/08/14 10:19:59;;;;;;;6.10;1.50;;;;;;;39.86;21.85;100171.89;108979;1260;59614;-64
2023/08/14 10:22:46;;;;;;;6.40;1.70;;;;;;;40.07;21.08;100165.11;108962;1260;74096;-62
2023/08/14 10:25:38;;;;;;;8.70;1.70;;;;;;;39.58;20.81;100171.45;108900;1260;68861;-64
2023/08/14 10:28:25;;;;;;;6.20;1.60;;;;;;;38.96;21.41;100165.05;108969;1260;73638;-66
2023/08/14 10:31:12;;;;;;;6.50;1.40;;;;;;;39.16;21.45;100162.62;108939;1260;57727;-65
2023/08/14 10:33:59;;;;;;;9.20;1.40;;;;;;;39.11;20.94;100164.48;108945;1263;60314;-65
2023/08/14 10:36:52;;;;;;;5.80;1.40;;;;;;;39.15;21.43;100155.84;108940;1259;73007;-64
2023/08/14 10:39:38;;;;;;;6.20;1.60;;;;;;;39.57;21.30;100148.41;108973;1260;68829;-63
2023/08/14 10:42:25;;;;;;;7.50;1.70;;;;;;;39.63;20.62;100154.53;108985;1261;73609;-63
2023/08/14 10:45:15;;;;;;;7.40;1.50;;;;;;;39.40;20.73;100145.95;108893;1259;58955;-63
2023/08/14 10:48:09;;;;;;;7.90;1.80;;;;;;;39.51;20.93;100144.02;108850;1260;61205;-63
2023/08/14 10:50:59;;;;;;;7.10;1.40;;;;;;;39.53;20.87;100141.33;108962;1259;74248;-65
2023/08/14 10:53:46;;;;;;;7.00;1.80;;;;;;;39.58;21.11;100144.89;109039;1260;66387;-62
2023/08/14 10:56:51;;;;;;;6.30;1.60;;;;;;;39.56;21.89;100140.81;108960;1260;71842;-63
2023/08/14 10:59:40;;;;;;;6.20;1.70;;;;;;;39.83;22.12;100139.50;109007;1260;57853;-63
2023/08/14 11:02:29;;;;;;;6.70;1.80;;;;;;;39.67;22.18;100140.69;108915;1259;58888;-65
2023/08/14 11:05:16;;;;;;;7.10;1.90;;;;;;;38.91;22.80;100142.17;108973;1259;73415;-64
2023/08/14 11:08:05;;;;;;;7.10;1.90;;;;;;;38.00;23.47;100134.74;108989;1261;67848;-64
2023/08/14 11:10:52;;;;;;;6.30;1.70;;;;;;;37.59;25.12;100128.89;108860;1260;73524;-63
2023/08/14 11:13:38;;;;;;;7.80;1.80;;;;;;;38.07;24.87;100132.21;108956;1260;57298;-63
2023/08/14 11:16:25;;;;;;;7.70;1.70;;;;;;;38.67;24.08;100131.37;108945;1259;60842;-66
2023/08/14 11:19:12;;;;;;;7.40;1.90;;;;;;;38.78;24.16;100128.02;108973;1259;72815;-64
2023/08/14 11:21:59;;;;;;;8.80;1.70;;;;;;;38.44;24.24;100126.50;108972;1261;68834;-64
2023/08/14 11:24:46;;;;;;;6.80;1.60;;;;;;;38.25;24.74;100125.61;108992;1257;72570;-64
2023/08/14 11:27:33;;;;;;;6.50;1.80;;;;;;;38.11;25.36;100125.09;109026;1257;58834;-63
2023/08/14 11:30:23;;;;;;;6.90;1.40;;;;;;;37.61;25.72;100119.55;109044;1257;61481;-62
2023/08/14 11:33:12;;;;;;;7.20;1.50;;;;;;;37.20;26.64;100117.29;109041;1262;72855;-63
2023/08/14 11:35:58;;;;;;;7.60;1.70;;;;;;;36.91;27.29;100114.02;109066;1257;67764;-63
2023/08/14 11:38:57;;;;;;;6.70;1.80;;;;;;;36.60;27.53;100115.38;109082;1257;73506;-66
2023/08/14 11:41:43;;;;;;;6.80;1.70;;;;;;;36.16;28.05;100116.13;109113;1257;58674;-65
2023/08/14 11:44:29;;;;;;;7.80;1.70;;;;;;;35.76;28.66;100116.67;109112;1257;61531;-62
2023/08/14 11:47:17;;;;;;;6.10;1.80;;;;;;;35.34;29.22;100112.52;109048;1257;74189;-64
2023/08/14 11:50:04;;;;;;;7.20;1.90;;;;;;;34.89;30.04;100112.27;109031;1257;67648;-62
2023/08/14 11:52:51;;;;;;;6.20;1.80;;;;;;;34.47;30.31;100121.10;109033;1257;72812;-67
2023/08/14 11:55:38;;;;;;;7.70;1.90;;;;;;;34.01;30.80;100120.46;109043;1257;57785;-61
2023/08/14 11:58:24;;;;;;;9.40;1.90;;;;;;;33.62;31.31;100120.14;109073;1257;60830;-68
2023/08/14 12:01:10;;;;;;;5.80;1.80;;;;;;;33.19;31.85;100119.63;108972;1257;73456;-64
2023/08/14 12:03:57;;;;;;;8.60;2.10;;;;;;;32.67;33.17;100117.27;109030;1258;68297;-65
2023/08/14 12:06:43;;;;;;;6.90;1.90;;;;;;;32.13;33.85;100114.52;109000;1257;72681;-65
2023/08/14 12:09:30;;;;;;;7.70;2.10;;;;;;;31.67;34.28;100116.27;108905;1260;57412;-67
2023/08/14 12:12:17;;;;;;;8.00;2.20;;;;;;;31.26;35.13;100121.80;108960;1260;61287;-65
2023/08/14 12:15:05;;;;;;;7.00;1.90;;;;;;;30.77;35.92;100124.67;108893;1258;73554;-65
2023/08/14 12:17:52;;;;;;;6.70;2.00;;;;;;;30.36;36.61;100127.69;109007;1258;69029;-66
2023/08/14 12:20:39;;;;;;;7.60;2.00;;;;;;;29.95;37.92;100127.86;109021;1260;73233;-63
2023/08/14 12:23:25;;;;;;;7.80;2.00;;;;;;;29.71;38.94;100121.52;108910;1257;57405;-65
2023/08/14 12:26:12;;;;;;;9.10;2.10;;;;;;;29.47;39.47;100121.65;108970;1259;60287;-64
2023/08/14 12:28:58;;;;;;;7.20;2.00;;;;;;;29.31;39.62;100120.52;109018;1260;73881;-64
2023/08/14 12:31:46;;;;;;;9.60;2.20;;;;;;;29.05;40.01;100120.91;109011;1259;68768;-64
2023/08/14 12:34:33;;;;;;;7.80;2.00;;;;;;;28.68;40.64;100118.00;108908;1260;72366;-65
2023/08/14 12:37:20;;;;;;;7.70;2.10;;;;;;;28.38;41.21;100121.96;108997;1259;57800;-64
2023/08/14 12:40:09;;;;;;;8.60;2.10;;;;;;;28.16;41.49;100119.67;108958;1260;60349;-62
2023/08/14 12:42:55;;;;;;;6.60;2.10;;;;;;;28.16;41.59;100123.94;108966;1260;72897;-68
2023/08/14 12:45:42;;;;;;;8.70;1.90;;;;;;;28.06;42.07;100126.03;108987;1259;67570;-63
2023/08/14 12:48:29;;;;;;;9.30;2.30;;;;;;;27.97;41.56;100129.63;109008;1259;71724;-64